Time;durP1;ratioP1;P1;durP2;ratioP2;P2;SDS_P1;SDS_P2;PMS_P1;PMS_P2;Temp;Humidity;BMP_temperature;BMP_pressure;BME280_temperature;BME280_humidity;BME280_pressure;Samples;Min_cycle;Max_cycle;Signal;HPM_P1;HPM_P2
2024/01/30 00:02:09;;;;;;;;;;;5.30;99.90;;;;;;5093378;28;19950;-70
2024/01/30 00:04:34;;;;;;;;;;;5.20;99.90;;;;;;5093950;28;19959;-70
2024/01/30 00:07:00;;;;;;;;;;;5.20;99.90;;;;;;5092515;28;20011;-71
2024/01/30 00:09:25;;;;;;;;;;;5.20;99.90;;;;;;5107538;27;19923;-70
2024/01/30 00:11:51;;;;;;;;;;;5.20;99.90;;;;;;5130905;27;19976;-70
2024/01/30 00:14:16;;;;;;;;;;;5.20;99.90;;;;;;5130050;27;19923;-70
2024/01/30 00:16:42;;;;;;;;;;;5.20;99.90;;;;;;5113033;27;19934;-70
2024/01/30 00:19:08;;;;;;;;;;;5.20;99.90;;;;;;5130971;27;19927;-71
2024/01/30 00:21:33;;;;;;;;;;;5.20;99.90;;;;;;5112804;27;20398;-70
2024/01/30 00:23:59;;;;;;;;;;;5.20;99.90;;;;;;5130131;27;20404;-70
2024/01/30 00:26:24;;;;;;;;;;;5.10;99.90;;;;;;5131004;27;19968;-71
2024/01/30 00:28:50;;;;;;;;;;;5.10;99.90;;;;;;5110398;27;19976;-71
2024/01/30 00:31:16;;;;;;;;;;;5.10;99.90;;;;;;5113694;27;19935;-71
2024/01/30 00:33:41;;;;;;;;;;;5.10;99.90;;;;;;5112879;27;19923;-70
2024/01/30 00:36:08;;;;;;;;;;;5.10;99.90;;;;;;5110789;27;19923;-71
2024/01/30 00:38:33;;;;;;;;;;;5.00;99.90;;;;;;5113307;27;19935;-71
2024/01/30 00:40:59;;;;;;;;;;;5.00;99.90;;;;;;5097132;28;20276;-70
2024/01/30 00:43:25;;;;;;;;;;;5.00;99.90;;;;;;5104552;27;19991;-71
2024/01/30 00:45:52;;;;;;;;;;;5.00;99.90;;;;;;5111898;27;20374;-70
2024/01/30 00:48:18;;;;;;;;;;;5.00;99.90;;;;;;5113709;27;20267;-71
2024/01/30 00:50:43;;;;;;;;;;;4.90;99.90;;;;;;5112540;27;19934;-71
2024/01/30 00:53:09;;;;;;;;;;;4.90;99.90;;;;;;5095288;28;20455;-71
2024/01/30 00:55:35;;;;;;;;;;;4.90;99.90;;;;;;5119565;27;20409;-71
2024/01/30 00:58:00;;;;;;;;;;;4.80;99.90;;;;;;5099743;28;20041;-71
2024/01/30 01:00:28;;;;;;;;;;;4.80;99.90;;;;;;5092033;28;20026;-71
2024/01/30 01:02:55;;;;;;;;;;;4.80;99.90;;;;;;5092206;28;20275;-70
2024/01/30 01:05:20;;;;;;;;;;;4.80;99.90;;;;;;5091895;28;19924;-70
2024/01/30 01:07:47;;;;;;;;;;;4.80;99.90;;;;;;5092726;28;20419;-71
2024/01/30 01:10:13;;;;;;;;;;;4.80;99.90;;;;;;5094413;27;19931;-70
2024/01/30 01:12:39;;;;;;;;;;;4.80;99.90;;;;;;5130170;27;19923;-71
2024/01/30 01:15:05;;;;;;;;;;;4.80;99.90;;;;;;5111465;27;20420;-71
2024/01/30 01:17:31;;;;;;;;;;;4.80;99.90;;;;;;5111760;27;19923;-71
2024/01/30 01:19:56;;;;;;;;;;;4.90;99.90;;;;;;5112009;27;19923;-71
2024/01/30 01:22:22;;;;;;;;;;;4.90;99.90;;;;;;5111688;27;20007;-70
2024/01/30 01:24:48;;;;;;;;;;;5.00;99.90;;;;;;5121014;27;20448;-70
2024/01/30 01:27:13;;;;;;;;;;;4.90;99.90;;;;;;5132661;27;19959;-71
2024/01/30 01:29:39;;;;;;;;;;;4.90;99.90;;;;;;5134304;27;19968;-71
2024/01/30 01:32:05;;;;;;;;;;;4.90;99.90;;;;;;5111098;27;20026;-71
2024/01/30 01:34:31;;;;;;;;;;;4.90;99.90;;;;;;5112699;27;19924;-71
2024/01/30 01:36:56;;;;;;;;;;;4.90;99.90;;;;;;5112227;27;19926;-71
2024/01/30 01:39:23;;;;;;;;;;;4.90;99.90;;;;;;5111597;27;19923;-71
2024/01/30 01:41:49;;;;;;;;;;;4.90;99.90;;;;;;5094290;28;19954;-71
2024/01/30 01:44:14;;;;;;;;;;;4.90;99.90;;;;;;5091561;28;19924;-71
2024/01/30 01:46:40;;;;;;;;;;;4.90;99.90;;;;;;5109561;28;19927;-71
2024/01/30 01:49:06;;;;;;;;;;;4.90;99.90;;;;;;5091796;28;19930;-71
2024/01/30 01:51:33;;;;;;;;;;;4.90;99.90;;;;;;5091934;28;19924;-71
2024/01/30 01:54:00;;;;;;;;;;;4.90;99.90;;;;;;5096018;28;20001;-71
2024/01/30 01:56:26;;;;;;;;;;;5.00;99.90;;;;;;5107514;28;19923;-71
2024/01/30 01:58:54;;;;;;;;;;;5.00;99.90;;;;;;5094265;28;20279;-71
2024/01/30 02:01:20;;;;;;;;;;;5.00;99.90;;;;;;5108651;28;19932;-71
2024/01/30 02:03:46;;;;;;;;;;;5.00;99.90;;;;;;5093735;28;19928;-71
2024/01/30 02:06:12;;;;;;;;;;;5.00;99.90;;;;;;5111883;28;19924;-71
2024/01/30 02:08:37;;;;;;;;;;;5.00;99.90;;;;;;5111446;28;20321;-71
2024/01/30 02:11:03;;;;;;;;;;;5.00;99.90;;;;;;5130276;28;19931;-71
2024/01/30 02:13:28;;;;;;;;;;;5.00;99.90;;;;;;5109829;28;20272;-71
2024/01/30 02:15:54;;;;;;;;;;;5.10;99.90;;;;;;5111447;28;20006;-71
2024/01/30 02:18:20;;;;;;;;;;;5.00;99.90;;;;;;5112031;28;19962;-71
2024/01/30 02:20:46;;;;;;;;;;;5.00;99.90;;;;;;5110499;28;19924;-71
2024/01/30 02:23:12;;;;;;;;;;;5.40;99.90;;;;;;5110115;28;19954;-71
2024/01/30 02:25:47;;;;;;;;;;;5.00;99.90;;;;;;5112612;28;19924;-71
2024/01/30 02:28:13;;;;;;;;;;;5.00;99.90;;;;;;5108075;28;19928;-71
2024/01/30 02:30:39;;;;;;;;;;;6.60;99.90;;;;;;5097867;28;19976;-71
2024/01/30 02:33:04;;;;;;;;;;;5.10;99.90;;;;;;5111405;28;19958;-71
2024/01/30 02:35:30;;;;;;;;;;;5.10;99.90;;;;;;5111762;28;20145;-71
2024/01/30 02:37:55;;;;;;;;;;;5.10;99.90;;;;;;5111733;27;19931;-71
2024/01/30 02:40:21;;;;;;;;;;;5.10;99.90;;;;;;5122429;28;19927;-71
2024/01/30 02:42:47;;;;;;;;;;;5.10;99.90;;;;;;5109607;28;20273;-71
2024/01/30 02:45:12;;;;;;;;;;;5.20;99.90;;;;;;5129969;28;20558;-71
2024/01/30 02:47:38;;;;;;;;;;;5.20;99.90;;;;;;5111607;28;19928;-71
2024/01/30 02:50:04;;;;;;;;;;;5.30;99.90;;;;;;5111194;28;19977;-71
2024/01/30 02:52:30;;;;;;;;;;;5.30;99.90;;;;;;5113674;27;19923;-71
2024/01/30 02:54:55;;;;;;;;;;;5.30;99.90;;;;;;5113464;27;20046;-71
2024/01/30 02:57:21;;;;;;;;;;;6.30;99.90;;;;;;5112870;27;20058;-71
2024/01/30 02:59:46;;;;;;;;;;;5.40;99.90;;;;;;5107620;27;19923;-71
2024/01/30 03:02:12;;;;;;;;;;;5.60;99.90;;;;;;5113552;27;20010;-71
2024/01/30 03:04:37;;;;;;;;;;;5.40;99.90;;;;;;5114573;27;20462;-71
2024/01/30 03:07:03;;;;;;;;;;;5.40;99.90;;;;;;5133015;27;20045;-71
2024/01/30 03:09:29;;;;;;;;;;;5.40;99.90;;;;;;5134083;27;19924;-71
2024/01/30 03:11:54;;;;;;;;;;;5.70;99.90;;;;;;5114042;27;19977;-71
2024/01/30 03:14:20;;;;;;;;;;;5.40;99.90;;;;;;5113937;27;19924;-71
2024/01/30 03:16:45;;;;;;;;;;;5.50;99.90;;;;;;5114583;27;19931;-71
2024/01/30 03:19:11;;;;;;;;;;;5.70;99.90;;;;;;5130881;27;19966;-71
2024/01/30 03:21:36;;;;;;;;;;;5.50;99.90;;;;;;5094232;28;19934;-71
2024/01/30 03:24:02;;;;;;;;;;;5.50;99.90;;;;;;5104868;27;19934;-71
2024/01/30 03:26:28;;;;;;;;;;;5.50;99.90;;;;;;5111045;27;19927;-71
2024/01/30 03:28:53;;;;;;;;;;;5.80;99.90;;;;;;5096360;28;19936;-71
2024/01/30 03:31:19;;;;;;;;;;;5.50;99.90;;;;;;5108349;27;19923;-71
2024/01/30 03:33:44;;;;;;;;;;;5.50;99.90;;;;;;5114337;27;20469;-71
2024/01/30 03:36:10;;;;;;;;;;;5.50;99.90;;;;;;5115065;27;20259;-71
2024/01/30 03:38:36;;;;;;;;;;;6.00;99.90;;;;;;5113830;27;19931;-71
2024/01/30 03:41:01;;;;;;;;;;;5.70;99.90;;;;;;5132596;27;19920;-71
2024/01/30 03:43:27;;;;;;;;;;;5.60;99.90;;;;;;5113588;27;19935;-71
2024/01/30 03:45:52;;;;;;;;;;;5.60;99.90;;;;;;5113089;27;19927;-70
2024/01/30 03:48:19;;;;;;;;;;;5.60;99.90;;;;;;5132894;27;19924;-71
2024/01/30 03:50:44;;;;;;;;;;;5.60;99.90;;;;;;5114533;27;20379;-73
2024/01/30 03:53:10;;;;;;;;;;;5.70;99.90;;;;;;5112856;27;19933;-71
2024/01/30 03:55:35;;;;;;;;;;;5.70;99.90;;;;;;5114648;27;19930;-70
2024/01/30 03:58:01;;;;;;;;;;;5.70;99.90;;;;;;5112682;27;19945;-70
2024/01/30 04:00:26;;;;;;;;;;;5.70;99.90;;;;;;5103951;27;20024;-71
2024/01/30 04:02:52;;;;;;;;;;;5.70;99.90;;;;;;5100525;28;19955;-71
2024/01/30 04:05:17;;;;;;;;;;;5.70;99.90;;;;;;5129403;27;19924;-71
2024/01/30 04:07:43;;;;;;;;;;;5.70;99.90;;;;;;5113524;27;19931;-72
2024/01/30 04:10:09;;;;;;;;;;;5.70;99.90;;;;;;5131537;27;20409;-71
2024/01/30 04:12:35;;;;;;;;;;;5.80;99.90;;;;;;5109669;28;20018;-71
2024/01/30 04:15:01;;;;;;;;;;;5.80;99.90;;;;;;5109358;28;20629;-71
2024/01/30 04:17:28;;;;;;;;;;;5.80;99.90;;;;;;5110533;28;19970;-71
2024/01/30 04:19:54;;;;;;;;;;;5.90;99.90;;;;;;5109078;28;19977;-71
2024/01/30 04:22:20;;;;;;;;;;;5.90;99.90;;;;;;5109180;28;19924;-73
2024/01/30 04:24:45;;;;;;;;;;;5.90;99.90;;;;;;5110107;28;20295;-72
2024/01/30 04:27:11;;;;;;;;;;;5.90;99.90;;;;;;5108830;28;19924;-72
2024/01/30 04:29:36;;;;;;;;;;;6.00;99.90;;;;;;5109951;28;19924;-71
2024/01/30 04:32:02;;;;;;;;;;;6.00;99.90;;;;;;5110070;28;19988;-71
2024/01/30 04:34:27;;;;;;;;;;;6.10;99.90;;;;;;5110091;28;20338;-71
2024/01/30 04:36:53;;;;;;;;;;;6.10;99.90;;;;;;5124193;27;20026;-71
2024/01/30 04:39:18;;;;;;;;;;;6.10;99.90;;;;;;5130952;27;19935;-72
2024/01/30 04:41:44;;;;;;;;;;;6.10;99.90;;;;;;5129877;27;19930;-71
2024/01/30 04:44:11;;;;;;;;;;;6.20;99.90;;;;;;5129781;27;19923;-71
2024/01/30 04:46:36;;;;;;;;;;;6.20;99.90;;;;;;5125054;27;20314;-71
2024/01/30 04:49:03;;;;;;;;;;;6.20;99.90;;;;;;5108889;27;19924;-72
2024/01/30 04:51:29;;;;;;;;;;;6.30;99.90;;;;;;5108128;28;19931;-71
2024/01/30 04:53:55;;;;;;;;;;;6.30;99.90;;;;;;5109730;28;19931;-72
2024/01/30 04:56:20;;;;;;;;;;;6.50;99.90;;;;;;5109139;28;19924;-71
2024/01/30 04:58:46;;;;;;;;;;;6.40;99.90;;;;;;5108037;28;20446;-72
2024/01/30 05:01:14;;;;;;;;;;;6.40;99.90;;;;;;5101742;28;20011;-72
2024/01/30 05:03:40;;;;;;;;;;;6.50;99.90;;;;;;5106780;28;19930;-71
2024/01/30 05:06:06;;;;;;;;;;;6.50;99.90;;;;;;5108828;28;19924;-71
2024/01/30 05:08:32;;;;;;;;;;;6.50;99.90;;;;;;5108621;28;19977;-72
2024/01/30 05:11:00;;;;;;;;;;;6.60;99.90;;;;;;5108712;28;19947;-72
2024/01/30 05:13:25;;;;;;;;;;;6.60;99.90;;;;;;5108765;28;20372;-71
2024/01/30 05:15:51;;;;;;;;;;;6.70;99.90;;;;;;5107907;28;19962;-72
2024/01/30 05:18:16;;;;;;;;;;;8.10;99.90;;;;;;5108554;28;20343;-72
2024/01/30 05:20:42;;;;;;;;;;;7.20;99.90;;;;;;5109494;28;20287;-72
2024/01/30 05:23:07;;;;;;;;;;;6.70;99.90;;;;;;5107921;28;19969;-72
2024/01/30 05:25:33;;;;;;;;;;;6.70;99.90;;;;;;5108699;28;19927;-72
2024/01/30 05:27:59;;;;;;;;;;;6.70;99.90;;;;;;5107963;28;19924;-72
2024/01/30 05:30:24;;;;;;;;;;;6.80;99.90;;;;;;5103186;28;19924;-72
2024/01/30 05:32:50;;;;;;;;;;;6.80;99.90;;;;;;5109088;28;19924;-72
2024/01/30 05:35:16;;;;;;;;;;;6.80;99.90;;;;;;5125464;27;20306;-71
2024/01/30 05:37:42;;;;;;;;;;;6.80;99.90;;;;;;5120375;27;19924;-72
2024/01/30 05:40:08;;;;;;;;;;;6.90;99.90;;;;;;5108482;28;20256;-71
2024/01/30 05:42:33;;;;;;;;;;;6.90;99.90;;;;;;5108023;28;19935;-72
2024/01/30 05:44:59;;;;;;;;;;;6.90;99.90;;;;;;5104921;28;20035;-71
2024/01/30 05:47:24;;;;;;;;;;;7.00;99.90;;;;;;5108751;28;19924;-71
2024/01/30 05:49:50;;;;;;;;;;;6.90;99.90;;;;;;5108054;28;19924;-72
2024/01/30 05:52:16;;;;;;;;;;;7.00;99.90;;;;;;5108165;28;19927;-71
2024/01/30 05:54:41;;;;;;;;;;;7.00;99.90;;;;;;5109746;28;19955;-71
2024/01/30 05:57:07;;;;;;;;;;;7.00;99.90;;;;;;5108886;28;19967;-71
2024/01/30 05:59:32;;;;;;;;;;;7.00;99.90;;;;;;5108198;28;20446;-72
2024/01/30 06:01:58;;;;;;;;;;;7.00;99.90;;;;;;5094638;28;19924;-72
2024/01/30 06:04:23;;;;;;;;;;;7.00;99.90;;;;;;5086608;28;20372;-71
2024/01/30 06:06:49;;;;;;;;;;;7.10;99.90;;;;;;5093230;28;19928;-71
2024/01/30 06:09:14;;;;;;;;;;;7.10;99.90;;;;;;5105697;28;19924;-70
2024/01/30 06:11:40;;;;;;;;;;;7.10;99.90;;;;;;5108410;28;19931;-71
2024/01/30 06:14:05;;;;;;;;;;;7.10;99.90;;;;;;5125863;28;19931;-70
2024/01/30 06:16:31;;;;;;;;;;;7.20;99.90;;;;;;5112347;28;19930;-70
2024/01/30 06:18:56;;;;;;;;;;;7.20;99.90;;;;;;5111485;28;19930;-70
2024/01/30 06:21:22;;;;;;;;;;;7.20;99.90;;;;;;5111351;27;20008;-70
2024/01/30 06:23:47;;;;;;;;;;;7.20;99.90;;;;;;5108155;28;19931;-70
2024/01/30 06:26:13;;;;;;;;;;;7.30;99.90;;;;;;5111273;27;19927;-71
2024/01/30 06:28:38;;;;;;;;;;;7.20;99.90;;;;;;5112523;27;19942;-70
2024/01/30 06:31:04;;;;;;;;;;;7.30;99.90;;;;;;5115614;27;19934;-70
2024/01/30 06:33:29;;;;;;;;;;;7.30;99.90;;;;;;5115622;27;20397;-70
2024/01/30 06:35:55;;;;;;;;;;;7.30;99.90;;;;;;5114788;27;20278;-70
2024/01/30 06:38:20;;;;;;;;;;;7.30;99.90;;;;;;5115982;27;19923;-70
2024/01/30 06:40:46;;;;;;;;;;;7.30;99.90;;;;;;5131870;27;19923;-70
2024/01/30 06:43:11;;;;;;;;;;;7.30;99.90;;;;;;5131755;27;19923;-70
2024/01/30 06:45:37;;;;;;;;;;;7.30;99.90;;;;;;5116866;27;19931;-70
2024/01/30 06:48:03;;;;;;;;;;;8.50;99.90;;;;;;5132638;27;19938;-70
2024/01/30 06:50:28;;;;;;;;;;;7.40;99.90;;;;;;5116111;27;20386;-71
2024/01/30 06:52:54;;;;;;;;;;;7.50;99.90;;;;;;5113647;27;19923;-71
2024/01/30 06:55:19;;;;;;;;;;;7.40;99.90;;;;;;5133415;27;19924;-70
2024/01/30 06:57:45;;;;;;;;;;;7.40;99.90;;;;;;5114618;27;19976;-70
2024/01/30 07:00:10;;;;;;;;;;;7.60;99.90;;;;;;5133480;27;19930;-71
2024/01/30 07:02:36;;;;;;;;;;;7.40;99.90;;;;;;5130181;27;19924;-70
2024/01/30 07:05:02;;;;;;;;;;;7.50;99.90;;;;;;5099740;27;19966;-71
2024/01/30 07:07:28;;;;;;;;;;;7.50;99.90;;;;;;5118424;27;19977;-70
2024/01/30 07:09:56;;;;;;;;;;;7.50;99.90;;;;;;5131575;27;19923;-71
2024/01/30 07:12:25;;;;;;;;;;;7.50;99.90;;;;;;5113950;27;20365;-70
2024/01/30 07:14:51;;;;;;;;;;;7.50;99.90;;;;;;5113775;27;19930;-71
2024/01/30 07:17:17;;;;;;;;;;;7.60;99.90;;;;;;5113948;27;19923;-70
2024/01/30 07:19:42;;;;;;;;;;;7.60;99.90;;;;;;5132998;27;19935;-70
2024/01/30 07:22:08;;;;;;;;;;;7.60;99.90;;;;;;5112894;27;20297;-70
2024/01/30 07:24:33;;;;;;;;;;;7.70;99.90;;;;;;5108713;27;19973;-71
2024/01/30 07:26:59;;;;;;;;;;;7.80;99.90;;;;;;5113113;27;19923;-71
2024/01/30 07:29:24;;;;;;;;;;;7.70;99.90;;;;;;5113727;27;19927;-71
2024/01/30 07:31:50;;;;;;;;;;;7.70;99.90;;;;;;5131249;27;20014;-70
2024/01/30 07:34:16;;;;;;;;;;;7.70;99.90;;;;;;5115055;27;19923;-71
2024/01/30 07:36:41;;;;;;;;;;;7.70;99.90;;;;;;5130108;27;19945;-71
2024/01/30 07:39:07;;;;;;;;;;;7.70;99.90;;;;;;5107717;28;20033;-71
2024/01/30 07:41:32;;;;;;;;;;;7.70;99.90;;;;;;5093681;28;19928;-70
2024/01/30 07:43:58;;;;;;;;;;;7.70;99.90;;;;;;5091310;28;20022;-71
2024/01/30 07:46:24;;;;;;;;;;;7.70;99.90;;;;;;5111382;27;20006;-71
2024/01/30 07:48:49;;;;;;;;;;;7.70;99.90;;;;;;5099056;27;19942;-71
2024/01/30 07:51:15;;;;;;;;;;;7.80;99.90;;;;;;5113767;27;19996;-71
2024/01/30 07:53:41;;;;;;;;;;;7.80;99.90;;;;;;5112550;27;19978;-71
2024/01/30 07:56:07;;;;;;;;;;;7.80;99.90;;;;;;5112800;27;19924;-70
2024/01/30 07:58:32;;;;;;;;;;;7.80;99.90;;;;;;5110761;27;20402;-71
2024/01/30 08:01:00;;;;;;;;;;;7.80;99.90;;;;;;5130913;27;19946;-71
2024/01/30 08:03:25;;;;;;;;;;;7.80;99.90;;;;;;5113018;27;20355;-70
2024/01/30 08:05:51;;;;;;;;;;;7.80;99.90;;;;;;5112785;27;19923;-70
2024/01/30 08:08:16;;;;;;;;;;;7.80;99.90;;;;;;5132055;27;20379;-70
2024/01/30 08:10:42;;;;;;;;;;;7.90;99.90;;;;;;5109747;28;19927;-70
2024/01/30 08:13:08;;;;;;;;;;;8.00;99.90;;;;;;5100500;27;20321;-70
2024/01/30 08:15:34;;;;;;;;;;;8.00;99.90;;;;;;5130452;27;19927;-70
2024/01/30 08:18:00;;;;;;;;;;;8.00;99.90;;;;;;5113559;27;19924;-70
2024/01/30 08:20:25;;;;;;;;;;;8.00;99.90;;;;;;5112854;27;19930;-71
2024/01/30 08:22:51;;;;;;;;;;;8.00;99.90;;;;;;5129457;27;20354;-70
2024/01/30 08:25:16;;;;;;;;;;;8.00;99.90;;;;;;5113776;27;19927;-70
2024/01/30 08:27:42;;;;;;;;;;;8.00;99.90;;;;;;5130660;27;19966;-71
2024/01/30 08:30:08;;;;;;;;;;;8.00;99.90;;;;;;5112750;27;20499;-70
2024/01/30 08:32:33;;;;;;;;;;;8.10;99.90;;;;;;5113386;27;19923;-71
2024/01/30 08:34:59;;;;;;;;;;;8.10;99.90;;;;;;5130380;27;20392;-70
2024/01/30 08:37:25;;;;;;;;;;;8.20;99.90;;;;;;5131560;27;20431;-71
2024/01/30 08:39:50;;;;;;;;;;;8.10;99.90;;;;;;5113534;27;19927;-71
2024/01/30 08:42:18;;;;;;;;;;;8.20;99.90;;;;;;5112051;27;20374;-70
2024/01/30 08:44:44;;;;;;;;;;;8.20;99.90;;;;;;5112625;27;19923;-71
2024/01/30 08:47:09;;;;;;;;;;;8.30;99.90;;;;;;5105583;28;19923;-71
2024/01/30 08:49:35;;;;;;;;;;;8.30;99.90;;;;;;5098328;28;19923;-70
2024/01/30 08:52:00;;;;;;;;;;;8.40;99.90;;;;;;5096544;27;20236;-71
2024/01/30 08:54:26;;;;;;;;;;;8.40;99.90;;;;;;5130021;27;19923;-71
2024/01/30 08:56:53;;;;;;;;;;;8.50;99.90;;;;;;5109056;27;19931;-70
2024/01/30 08:59:18;;;;;;;;;;;8.50;99.90;;;;;;5100292;28;19976;-70
2024/01/30 09:01:44;;;;;;;;;;;8.50;99.90;;;;;;5091509;28;19932;-70
2024/01/30 09:04:09;;;;;;;;;;;8.60;99.90;;;;;;5106245;27;19924;-71
2024/01/30 09:06:35;;;;;;;;;;;8.70;99.90;;;;;;5130582;27;19931;-71
2024/01/30 09:09:01;;;;;;;;;;;8.60;99.90;;;;;;5127198;27;19951;-71
2024/01/30 09:11:26;;;;;;;;;;;8.60;99.90;;;;;;5094027;27;19924;-70
2024/01/30 09:13:52;;;;;;;;;;;8.90;99.90;;;;;;5110115;27;19927;-71
2024/01/30 09:16:17;;;;;;;;;;;8.70;99.90;;;;;;5111720;27;19930;-70
2024/01/30 09:18:43;;;;;;;;;;;8.70;99.90;;;;;;5111490;27;19927;-71
2024/01/30 09:21:09;;;;;;;;;;;8.80;99.90;;;;;;5112759;27;19927;-71
2024/01/30 09:23:35;;;;;;;;;;;8.90;99.90;;;;;;5128724;27;20146;-70
2024/01/30 09:26:00;;;;;;;;;;;8.90;99.90;;;;;;5128965;27;19942;-70
2024/01/30 09:28:26;;;;;;;;;;;8.90;99.90;;;;;;5110214;27;19979;-70
2024/01/30 09:30:52;;;;;;;;;;;9.00;99.90;;;;;;5109541;27;19930;-70
2024/01/30 09:33:17;;;;;;;;;;;9.10;99.90;;;;;;5111482;27;19930;-70
2024/01/30 09:35:43;;;;;;;;;;;9.20;99.90;;;;;;5111146;27;20023;-71
2024/01/30 09:38:08;;;;;;;;;;;9.20;99.90;;;;;;5128300;27;19927;-70
2024/01/30 09:40:34;;;;;;;;;;;9.20;99.90;;;;;;5111958;28;20026;-70
2024/01/30 09:43:02;;;;;;;;;;;9.30;99.90;;;;;;5110915;28;19923;-71
2024/01/30 09:45:28;;;;;;;;;;;9.50;99.90;;;;;;5111703;27;19928;-70
2024/01/30 09:47:53;;;;;;;;;;;9.50;99.90;;;;;;5108087;28;19936;-71
2024/01/30 09:50:19;;;;;;;;;;;9.50;99.90;;;;;;5109121;28;19931;-71
2024/01/30 09:52:45;;;;;;;;;;;9.60;99.90;;;;;;5121993;27;19927;-71
2024/01/30 09:55:11;;;;;;;;;;;9.60;99.90;;;;;;5111355;28;19931;-71
2024/01/30 09:57:37;;;;;;;;;;;9.70;99.90;;;;;;5110506;28;19924;-71
2024/01/30 10:00:08;;;;;;;;;;;9.90;99.90;;;;;;5111578;28;19927;-71
2024/01/30 10:02:34;;;;;;;;;;;9.70;99.90;;;;;;5115640;27;19969;-70
2024/01/30 10:05:00;;;;;;;;;;;9.80;99.90;;;;;;5115760;27;19985;-71
2024/01/30 10:07:25;;;;;;;;;;;10.20;99.90;;;;;;5135146;27;19927;-71
2024/01/30 10:09:51;;;;;;;;;;;9.80;99.90;;;;;;5131638;27;19920;-71
2024/01/30 10:12:16;;;;;;;;;;;9.90;99.90;;;;;;5113369;27;19934;-71
2024/01/30 10:14:42;;;;;;;;;;;9.90;99.90;;;;;;5115702;27;19931;-71
2024/01/30 10:17:09;;;;;;;;;;;9.90;99.90;;;;;;5134400;27;20465;-71
2024/01/30 10:19:35;;;;;;;;;;;10.00;99.90;;;;;;5114715;27;20317;-70
2024/01/30 10:22:01;;;;;;;;;;;10.00;99.90;;;;;;5133119;27;19982;-71
2024/01/30 10:24:26;;;;;;;;;;;10.00;99.90;;;;;;5115170;27;19970;-71
2024/01/30 10:26:55;;;;;;;;;;;10.70;99.90;;;;;;5114550;27;19985;-71
2024/01/30 10:29:21;;;;;;;;;;;10.10;99.90;;;;;;5115469;27;19926;-71
2024/01/30 10:31:57;;;;;;;;;;;10.20;99.90;;;;;;5115997;27;19924;-70
2024/01/30 10:34:22;;;;;;;;;;;10.20;99.90;;;;;;5132802;27;19928;-70
2024/01/30 10:36:49;;;;;;;;;;;10.30;99.90;;;;;;5115538;27;19930;-70
2024/01/30 10:39:17;;;;;;;;;;;10.30;99.90;;;;;;5116269;27;20312;-71
2024/01/30 10:41:48;;;;;;;;;;;10.30;99.90;;;;;;5115011;27;20189;-71
2024/01/30 10:44:17;;;;;;;;;;;10.30;99.90;;;;;;5115314;27;19923;-71
2024/01/30 10:46:45;;;;;;;;;;;10.30;99.90;;;;;;5114921;27;19941;-71
2024/01/30 10:49:12;;;;;;;;;;;10.30;99.90;;;;;;5109037;28;20023;-71
2024/01/30 10:51:39;;;;;;;;;;;10.40;99.90;;;;;;5094847;28;19930;-70
2024/01/30 10:54:05;;;;;;;;;;;10.40;99.90;;;;;;5113515;27;19927;-71
2024/01/30 10:56:32;;;;;;;;;;;10.40;99.90;;;;;;5131254;27;20034;-71
2024/01/30 10:58:57;;;;;;;;;;;10.40;99.90;;;;;;5113599;27;19957;-72
2024/01/30 11:01:24;;;;;;;;;;;10.40;99.90;;;;;;5114754;27;19923;-70
2024/01/30 11:03:53;;;;;;;;;;;10.50;99.90;;;;;;5114720;27;19968;-70
2024/01/30 11:06:22;;;;;;;;;;;10.40;99.90;;;;;;5115411;27;19927;-71
2024/01/30 11:08:59;;;;;;;;;;;10.50;99.90;;;;;;5113775;27;19962;-71
2024/01/30 11:11:25;;;;;;;;;;;10.50;99.90;;;;;;5127049;27;19976;-71
2024/01/30 11:13:51;;;;;;;;;;;10.60;99.90;;;;;;5130293;27;19931;-71
2024/01/30 11:16:17;;;;;;;;;;;10.60;99.90;;;;;;5114329;27;20398;-71
2024/01/30 11:18:42;;;;;;;;;;;10.60;99.90;;;;;;5114920;27;19934;-71
2024/01/30 11:21:08;;;;;;;;;;;10.50;99.90;;;;;;5131048;27;19961;-71
2024/01/30 11:23:33;;;;;;;;;;;10.60;99.90;;;;;;5108565;27;19927;-70
2024/01/30 11:26:00;;;;;;;;;;;10.60;99.90;;;;;;5112761;27;19924;-70
2024/01/30 11:28:31;;;;;;;;;;;10.60;99.90;;;;;;5112736;27;20279;-70
2024/01/30 11:31:03;;;;;;;;;;;10.60;99.90;;;;;;5110042;27;19928;-71
2024/01/30 11:33:32;;;;;;;;;;;10.60;99.90;;;;;;5111562;27;19977;-70
2024/01/30 11:36:01;;;;;;;;;;;10.60;99.90;;;;;;5113575;27;20003;-70
2024/01/30 11:38:27;;;;;;;;;;;10.60;99.90;;;;;;5114696;27;19971;-71
2024/01/30 11:40:54;;;;;;;;;;;10.60;99.90;;;;;;5114461;27;19923;-71
2024/01/30 11:43:19;;;;;;;;;;;10.60;99.90;;;;;;5112932;27;20329;-71
2024/01/30 11:45:45;;;;;;;;;;;10.60;99.90;;;;;;5114335;27;19923;-71
2024/01/30 11:48:11;;;;;;;;;;;10.60;99.90;;;;;;5132706;27;19945;-71
2024/01/30 11:50:37;;;;;;;;;;;10.60;99.90;;;;;;5105547;28;19931;-70
2024/01/30 11:53:04;;;;;;;;;;;10.60;99.90;;;;;;5104103;28;19931;-71
2024/01/30 11:55:30;;;;;;;;;;;10.60;99.90;;;;;;5106649;27;19923;-70
2024/01/30 11:57:56;;;;;;;;;;;10.50;99.90;;;;;;5130526;27;19924;-71
2024/01/30 12:00:21;;;;;;;;;;;10.60;99.90;;;;;;5132456;27;19931;-70
2024/01/30 12:02:51;;;;;;;;;;;10.50;99.90;;;;;;5112751;27;19977;-71
2024/01/30 12:05:16;;;;;;;;;;;10.60;99.90;;;;;;5113823;27;20287;-70
2024/01/30 12:07:45;;;;;;;;;;;10.60;99.90;;;;;;5131730;27;19930;-70
2024/01/30 12:10:13;;;;;;;;;;;10.60;99.90;;;;;;5113889;27;19924;-70
2024/01/30 12:12:39;;;;;;;;;;;10.50;99.90;;;;;;5126955;27;20286;-70
2024/01/30 12:15:06;;;;;;;;;;;10.50;99.90;;;;;;5130051;27;19927;-70
2024/01/30 12:17:32;;;;;;;;;;;10.50;99.90;;;;;;5113619;27;19919;-70
2024/01/30 12:20:08;;;;;;;;;;;10.50;99.90;;;;;;5112688;27;19930;-70
2024/01/30 12:22:38;;;;;;;;;;;10.40;99.90;;;;;;5113597;27;19923;-70
2024/01/30 12:25:14;;;;;;;;;;;10.40;99.90;;;;;;5112539;27;20409;-70
2024/01/30 12:27:42;;;;;;;;;;;10.30;99.90;;;;;;5112923;27;19924;-70
2024/01/30 12:30:13;;;;;;;;;;;10.30;99.90;;;;;;5113220;27;20302;-70
2024/01/30 12:32:39;;;;;;;;;;;10.30;99.90;;;;;;5111667;27;19927;-70
2024/01/30 12:35:31;;;;;;;;;;;10.30;99.90;;;;;;5113528;27;19928;-70
2024/01/30 12:37:57;;;;;;;;;;;10.30;99.90;;;;;;5108036;27;19923;-71
2024/01/30 12:40:24;;;;;;;;;;;10.30;99.90;;;;;;5112768;27;19935;-70
2024/01/30 12:42:49;;;;;;;;;;;10.30;99.90;;;;;;5111915;27;19947;-70
2024/01/30 12:45:15;;;;;;;;;;;10.30;99.90;;;;;;5113165;27;19923;-70
2024/01/30 12:47:41;;;;;;;;;;;10.40;99.90;;;;;;5112559;27;19923;-70
2024/01/30 12:50:06;;;;;;;;;;;10.40;99.90;;;;;;5113052;27;19920;-70
2024/01/30 12:52:32;;;;;;;;;;;10.30;99.90;;;;;;5109883;27;19927;-70
2024/01/30 12:54:58;;;;;;;;;;;10.30;99.90;;;;;;5110725;27;19923;-70
2024/01/30 12:57:23;;;;;;;;;;;10.40;99.90;;;;;;5130765;27;19919;-70
2024/01/30 12:59:49;;;;;;;;;;;10.20;99.90;;;;;;5112181;27;19924;-70
2024/01/30 13:02:14;;;;;;;;;;;10.20;99.90;;;;;;5111298;27;19927;-70
2024/01/30 13:04:40;;;;;;;;;;;10.20;99.90;;;;;;5113153;27;19930;-70
2024/01/30 13:07:05;;;;;;;;;;;10.20;99.90;;;;;;5112386;27;19923;-70
2024/01/30 13:09:31;;;;;;;;;;;10.30;99.90;;;;;;5111705;27;20274;-70
2024/01/30 13:11:57;;;;;;;;;;;10.30;99.90;;;;;;5130330;27;19927;-70
2024/01/30 13:14:22;;;;;;;;;;;10.60;99.90;;;;;;5126526;27;20022;-70
2024/01/30 13:16:48;;;;;;;;;;;11.00;99.90;;;;;;5111435;27;19992;-70
2024/01/30 13:19:13;;;;;;;;;;;11.30;99.90;;;;;;5112893;27;20014;-70
2024/01/30 13:21:39;;;;;;;;;;;11.30;99.90;;;;;;5112511;27;20201;-71
2024/01/30 13:24:05;;;;;;;;;;;11.20;99.90;;;;;;5111823;27;19933;-70
2024/01/30 13:26:32;;;;;;;;;;;11.10;99.90;;;;;;5112908;27;20027;-70
2024/01/30 13:28:57;;;;;;;;;;;11.00;99.90;;;;;;5110790;27;19923;-70
2024/01/30 13:31:23;;;;;;;;;;;10.90;99.90;;;;;;5112804;27;19930;-70
2024/01/30 13:33:49;;;;;;;;;;;10.70;99.90;;;;;;5110044;27;20158;-70
2024/01/30 13:36:14;;;;;;;;;;;10.60;99.90;;;;;;5112014;27;19927;-70
2024/01/30 13:38:40;;;;;;;;;;;10.50;99.90;;;;;;5112577;27;19931;-70
2024/01/30 13:41:05;;;;;;;;;;;10.40;99.90;;;;;;5112130;28;19923;-70
2024/01/30 13:43:31;;;;;;;;;;;10.40;99.90;;;;;;5110686;28;19946;-71
2024/01/30 13:45:58;;;;;;;;;;;10.30;99.90;;;;;;5111668;27;19946;-70
2024/01/30 13:48:23;;;;;;;;;;;10.30;99.90;;;;;;5111739;27;20290;-71
2024/01/30 13:50:49;;;;;;;;;;;10.20;99.90;;;;;;5129654;27;19924;-70
2024/01/30 13:53:14;;;;;;;;;;;10.20;99.90;;;;;;5100683;28;19928;-70
2024/01/30 13:55:40;;;;;;;;;;;10.20;99.90;;;;;;5122731;27;19923;-70
2024/01/30 13:58:06;;;;;;;;;;;10.20;99.90;;;;;;5128108;27;20367;-71
2024/01/30 14:00:32;;;;;;;;;;;10.10;99.90;;;;;;5111712;28;20390;-71
2024/01/30 14:02:58;;;;;;;;;;;10.10;99.90;;;;;;5109597;28;19924;-70
2024/01/30 14:05:24;;;;;;;;;;;10.00;99.90;;;;;;5111600;28;20362;-70
2024/01/30 14:07:50;;;;;;;;;;;10.10;99.90;;;;;;5129598;28;19924;-70
2024/01/30 14:10:16;;;;;;;;;;;10.10;99.90;;;;;;5112023;28;19923;-70
2024/01/30 14:12:43;;;;;;;;;;;10.00;99.90;;;;;;5129038;28;19924;-70
2024/01/30 14:15:09;;;;;;;;;;;10.00;99.90;;;;;;5123425;27;19934;-70
2024/01/30 14:17:35;;;;;;;;;;;9.90;99.90;;;;;;5132476;27;19946;-70
2024/01/30 14:20:02;;;;;;;;;;;10.00;99.90;;;;;;5121363;28;19919;-70